Jj Sky — VRJA6 — position and weather

sailwx.info

Track history (hours):
 
Tides and Currents Weather Stations Pressure Air Temp Water Temp Dewpoint Dewpoint Depression Visibility Wind Speed Wind Dir Waves Ship Positions

Jj Sky

Last reported at 2015-Jan-28 06:17 UTC. Time now 2015-Jan-29 14:25 UTC.
Position N 34°56' E 139°27'.

Length 148 m; draft 8.5 m.

Type: Ship. MMSI: 477397500.

Date/timePositionNaut miles runAvg speedWind from/ knotsBaromVisibWave heightAir tempDewpointWater temp
2015-Jan-28 06:17N 34°56' E 139°27'1216.3
2015-Jan-28 05:32N 35°03' E 139°39'1414.6
2015-Jan-28 04:33N 35°16' E 139°45'1111.0
2015-Jan-28 03:34N 35°27' E 139°41'0 0.3
2015-Jan-28 02:28N 35°26' E 139°41'0 0.0
2015-Jan-28 01:32N 35°26' E 139°41'0 0.0
2015-Jan-28 00:31N 35°26' E 139°41'0 0.0
2015-Jan-27 23:27N 35°26' E 139°41'3 3.3
2015-Jan-27 22:33N 35°26' E 139°45'9 8.5
2015-Jan-27 21:32N 35°35' E 139°48'2 1.7
2015-Jan-27 20:33N 35°36' E 139°47'0 0.0
2015-Jan-27 19:26N 35°36' E 139°47'0 0.0
2015-Jan-27 17:32N 35°36' E 139°47'0 0.0
2015-Jan-27 15:12N 35°36' E 139°47'0 0.0
2015-Jan-27 14:30N 35°36' E 139°47'0 0.0
2015-Jan-27 04:16N 35°36' E 139°47'4 5.2
2015-Jan-27 03:33N 35°34' E 139°50'1211.8
2015-Jan-27 02:34N 35°22' E 139°45'1212.1
2015-Jan-27 01:33N 35°10' E 139°47'1615.4
2015-Jan-27 00:31N 34°58' E 139°34'  
2015-Jan-24 08:33N 35°59' E 120°31'1313.1
2015-Jan-24 07:32N 36°02' E 120°15'2 0.3
2015-Jan-24 00:25N 36°01' E 120°12'0 0.0
2015-Jan-23 23:25N 36°01' E 120°12'0 0.0
2015-Jan-23 22:24N 36°01' E 120°12'0 0.0
2015-Jan-23 21:30N 36°01' E 120°12'0 0.0
2015-Jan-23 20:23N 36°01' E 120°12'0 0.0
2015-Jan-23 19:31N 36°01' E 120°12'0 0.0
2015-Jan-23 18:18N 36°01' E 120°12'0 0.0
2015-Jan-23 17:30N 36°01' E 120°12'0 0.0
2015-Jan-23 16:24N 36°01' E 120°12'3 4.0
2015-Jan-23 15:34N 36°02' E 120°16'9 9.0
2015-Jan-23 14:33N 35°59' E 120°27'0 0.1
2015-Jan-23 13:17N 35°59' E 120°27'0 0.0
2015-Jan-23 12:23N 35°59' E 120°27'3 0.7
2015-Jan-23 08:34N 35°60' E 120°29'51814.8
2015-Jan-21 21:33N 34°02' E 130°46'20812.2
2015-Jan-21 04:33N 34°36' E 134°54'1515.2
2015-Jan-21 03:33N 34°37' E 135°13'3 2.5
2015-Jan-21 02:25N 34°39' E 135°14'0 0.0
2015-Jan-21 01:31N 34°39' E 135°14'0 0.1
2015-Jan-21 00:19N 34°39' E 135°14'0 0.0
2015-Jan-20 23:30N 34°39' E 135°14'0 0.0
2015-Jan-20 22:27N 34°39' E 135°14'5 5.8
2015-Jan-20 21:33N 34°39' E 135°21'3 2.8
2015-Jan-20 20:32N 34°39' E 135°24'0 0.0
2015-Jan-20 19:31N 34°39' E 135°24'0 0.0
2015-Jan-20 18:31N 34°39' E 135°24'0 0.0
2015-Jan-20 17:30N 34°39' E 135°24'0 0.0
2015-Jan-20 16:30N 34°39' E 135°24'0 0.1
2015-Jan-20 15:29N 34°39' E 135°24'0 0.1
2015-Jan-20 14:29N 34°39' E 135°24'0 0.0
2015-Jan-20 13:29N 34°39' E 135°24'0 0.0
2015-Jan-20 12:28N 34°39' E 135°24'0 0.1
2015-Jan-20 11:22N 34°39' E 135°24'0 0.0
2015-Jan-20 10:33N 34°39' E 135°24'0 0.1
2015-Jan-20 09:32N 34°39' E 135°24'0 0.0
2015-Jan-20 08:31N 34°39' E 135°24'0 0.0
2015-Jan-20 07:25N 34°39' E 135°24'0 0.1
2015-Jan-20 06:33N 34°39' E 135°24'0 0.1
2015-Jan-20 05:21N 34°39' E 135°24'0 0.0
2015-Jan-20 04:26N 34°39' E 135°24'0 0.0
2015-Jan-20 03:26N 34°39' E 135°24'0 0.0
2015-Jan-20 02:32N 34°39' E 135°24'0 0.1
2015-Jan-20 01:31N 34°39' E 135°24'1 0.7
2015-Jan-20 00:34N 34°38' E 135°24'1313.1
2015-Jan-19 23:34N 34°30' E 135°12'1818.3
2015-Jan-19 22:33N 34°15' E 134°59'1817.9
2015-Jan-19 21:33N 33°57' E 134°54'  
Track history (hours):
 
Tides and Currents Weather Stations Pressure Air Temp Water Temp Dewpoint Dewpoint Depression Visibility Wind Speed Wind Dir Waves Ship Positions

Jj Sky

Last reported at 2015-Jan-28 06:17 UTC. Time now 2015-Jan-29 14:25 UTC.
Position N 34°56' E 139°27'.

Length 148 m; draft 8.5 m.

Type: Ship. MMSI: 477397500.

Date/timePositionNaut miles runAvg speedWind from/ knotsBaromVisibWave heightAir tempDewpointWater temp
2015-Jan-28 06:17N 34°56' E 139°27'1216.3
2015-Jan-28 05:32N 35°03' E 139°39'1414.6
2015-Jan-28 04:33N 35°16' E 139°45'1111.0
2015-Jan-28 03:34N 35°27' E 139°41'0 0.3
2015-Jan-28 02:28N 35°26' E 139°41'0 0.0
2015-Jan-28 01:32N 35°26' E 139°41'0 0.0
2015-Jan-28 00:31N 35°26' E 139°41'0 0.0
2015-Jan-27 23:27N 35°26' E 139°41'3 3.3
2015-Jan-27 22:33N 35°26' E 139°45'9 8.5
2015-Jan-27 21:32N 35°35' E 139°48'2 1.7
2015-Jan-27 20:33N 35°36' E 139°47'0 0.0
2015-Jan-27 19:26N 35°36' E 139°47'0 0.0
2015-Jan-27 17:32N 35°36' E 139°47'0 0.0
2015-Jan-27 15:12N 35°36' E 139°47'0 0.0
2015-Jan-27 14:30N 35°36' E 139°47'0 0.0
2015-Jan-27 04:16N 35°36' E 139°47'4 5.2
2015-Jan-27 03:33N 35°34' E 139°50'1211.8
2015-Jan-27 02:34N 35°22' E 139°45'1212.1
2015-Jan-27 01:33N 35°10' E 139°47'1615.4
2015-Jan-27 00:31N 34°58' E 139°34'  
2015-Jan-24 08:33N 35°59' E 120°31'1313.1
2015-Jan-24 07:32N 36°02' E 120°15'2 0.3
2015-Jan-24 00:25N 36°01' E 120°12'0 0.0
2015-Jan-23 23:25N 36°01' E 120°12'0 0.0
2015-Jan-23 22:24N 36°01' E 120°12'0 0.0
2015-Jan-23 21:30N 36°01' E 120°12'0 0.0
2015-Jan-23 20:23N 36°01' E 120°12'0 0.0
2015-Jan-23 19:31N 36°01' E 120°12'0 0.0
2015-Jan-23 18:18N 36°01' E 120°12'0 0.0
2015-Jan-23 17:30N 36°01' E 120°12'0 0.0
2015-Jan-23 16:24N 36°01' E 120°12'3 4.0
2015-Jan-23 15:34N 36°02' E 120°16'9 9.0
2015-Jan-23 14:33N 35°59' E 120°27'0 0.1
2015-Jan-23 13:17N 35°59' E 120°27'0 0.0
2015-Jan-23 12:23N 35°59' E 120°27'3 0.7
2015-Jan-23 08:34N 35°60' E 120°29'51814.8
2015-Jan-21 21:33N 34°02' E 130°46'20812.2
2015-Jan-21 04:33N 34°36' E 134°54'1515.2
2015-Jan-21 03:33N 34°37' E 135°13'3 2.5
2015-Jan-21 02:25N 34°39' E 135°14'0 0.0
2015-Jan-21 01:31N 34°39' E 135°14'0 0.1
2015-Jan-21 00:19N 34°39' E 135°14'0 0.0
2015-Jan-20 23:30N 34°39' E 135°14'0 0.0
2015-Jan-20 22:27N 34°39' E 135°14'5 5.8
2015-Jan-20 21:33N 34°39' E 135°21'3 2.8
2015-Jan-20 20:32N 34°39' E 135°24'0 0.0
2015-Jan-20 19:31N 34°39' E 135°24'0 0.0
2015-Jan-20 18:31N 34°39' E 135°24'0 0.0
2015-Jan-20 17:30N 34°39' E 135°24'0 0.0
2015-Jan-20 16:30N 34°39' E 135°24'0 0.1
2015-Jan-20 15:29N 34°39' E 135°24'0 0.1
2015-Jan-20 14:29N 34°39' E 135°24'0 0.0
2015-Jan-20 13:29N 34°39' E 135°24'0 0.0
2015-Jan-20 12:28N 34°39' E 135°24'0 0.1
2015-Jan-20 11:22N 34°39' E 135°24'0 0.0
2015-Jan-20 10:33N 34°39' E 135°24'0 0.1
2015-Jan-20 09:32N 34°39' E 135°24'0 0.0
2015-Jan-20 08:31N 34°39' E 135°24'0 0.0
2015-Jan-20 07:25N 34°39' E 135°24'0 0.1
2015-Jan-20 06:33N 34°39' E 135°24'0 0.1
2015-Jan-20 05:21N 34°39' E 135°24'0 0.0
2015-Jan-20 04:26N 34°39' E 135°24'0 0.0
2015-Jan-20 03:26N 34°39' E 135°24'0 0.0
2015-Jan-20 02:32N 34°39' E 135°24'0 0.1
2015-Jan-20 01:31N 34°39' E 135°24'1 0.7
2015-Jan-20 00:34N 34°38' E 135°24'1313.1
2015-Jan-19 23:34N 34°30' E 135°12'1818.3
2015-Jan-19 22:33N 34°15' E 134°59'1817.9
2015-Jan-19 21:33N 33°57' E 134°54'  

Dump ship's entire track history